sensor_id;sensor_type;location;lat;lon;timestamp;temperature;humidity
14755;DHT22;7469;50.906;6.952;2023-11-21T00:01:17;9.80;99.90
14755;DHT22;7469;50.906;6.952;2023-11-21T00:03:46;9.80;99.90
14755;DHT22;7469;50.906;6.952;2023-11-21T00:06:15;9.80;99.90
14755;DHT22;7469;50.906;6.952;2023-11-21T00:08:43;9.80;99.90
14755;DHT22;7469;50.906;6.952;2023-11-21T00:11:11;9.80;99.90
14755;DHT22;7469;50.906;6.952;2023-11-21T00:13:39;9.80;99.90
14755;DHT22;7469;50.906;6.952;2023-11-21T00:16:08;9.90;99.90
14755;DHT22;7469;50.906;6.952;2023-11-21T00:18:36;9.80;99.90
14755;DHT22;7469;50.906;6.952;2023-11-21T00:21:06;9.90;99.90
14755;DHT22;7469;50.906;6.952;2023-11-21T00:23:34;9.80;99.90
14755;DHT22;7469;50.906;6.952;2023-11-21T00:26:01;9.80;99.90
14755;DHT22;7469;50.906;6.952;2023-11-21T00:28:30;9.80;99.90
14755;DHT22;7469;50.906;6.952;2023-11-21T00:30:59;9.80;99.90
14755;DHT22;7469;50.906;6.952;2023-11-21T00:33:27;9.80;99.90
14755;DHT22;7469;50.906;6.952;2023-11-21T00:35:55;9.80;99.90
14755;DHT22;7469;50.906;6.952;2023-11-21T00:38:24;9.90;99.90
14755;DHT22;7469;50.906;6.952;2023-11-21T00:40:52;9.90;99.90
14755;DHT22;7469;50.906;6.952;2023-11-21T00:43:23;9.80;99.90
14755;DHT22;7469;50.906;6.952;2023-11-21T00:45:51;9.90;99.90
14755;DHT22;7469;50.906;6.952;2023-11-21T00:48:19;9.80;99.90
14755;DHT22;7469;50.906;6.952;2023-11-21T00:50:47;9.80;99.90
14755;DHT22;7469;50.906;6.952;2023-11-21T00:53:15;9.80;99.90
14755;DHT22;7469;50.906;6.952;2023-11-21T00:55:45;9.80;99.90
14755;DHT22;7469;50.906;6.952;2023-11-21T00:58:13;9.80;99.90
14755;DHT22;7469;50.906;6.952;2023-11-21T01:00:41;9.90;99.90
14755;DHT22;7469;50.906;6.952;2023-11-21T01:03:09;9.90;99.90
14755;DHT22;7469;50.906;6.952;2023-11-21T01:05:37;9.80;99.90
14755;DHT22;7469;50.906;6.952;2023-11-21T01:08:05;9.90;99.90
14755;DHT22;7469;50.906;6.952;2023-11-21T01:10:33;9.90;99.90
14755;DHT22;7469;50.906;6.952;2023-11-21T01:13:03;9.90;99.90
14755;DHT22;7469;50.906;6.952;2023-11-21T01:15:32;9.80;99.90
14755;DHT22;7469;50.906;6.952;2023-11-21T01:18:00;9.80;99.90
14755;DHT22;7469;50.906;6.952;2023-11-21T01:20:28;9.80;99.90
14755;DHT22;7469;50.906;6.952;2023-11-21T01:22:56;9.80;99.90
14755;DHT22;7469;50.906;6.952;2023-11-21T01:25:25;9.80;99.90
14755;DHT22;7469;50.906;6.952;2023-11-21T01:27:53;9.80;99.90
14755;DHT22;7469;50.906;6.952;2023-11-21T01:30:22;9.80;99.90
14755;DHT22;7469;50.906;6.952;2023-11-21T01:32:51;9.80;99.90
14755;DHT22;7469;50.906;6.952;2023-11-21T01:35:19;9.80;99.90
14755;DHT22;7469;50.906;6.952;2023-11-21T01:37:47;9.80;99.90
14755;DHT22;7469;50.906;6.952;2023-11-21T01:40:15;9.80;99.90
14755;DHT22;7469;50.906;6.952;2023-11-21T01:42:43;9.80;99.90
14755;DHT22;7469;50.906;6.952;2023-11-21T01:45:11;9.80;99.90
14755;DHT22;7469;50.906;6.952;2023-11-21T01:47:41;9.70;99.90
14755;DHT22;7469;50.906;6.952;2023-11-21T01:50:14;9.70;99.90
14755;DHT22;7469;50.906;6.952;2023-11-21T01:52:45;9.70;99.90
14755;DHT22;7469;50.906;6.952;2023-11-21T01:55:15;9.70;99.90
14755;DHT22;7469;50.906;6.952;2023-11-21T01:57:54;9.70;99.90
14755;DHT22;7469;50.906;6.952;2023-11-21T02:00:22;9.70;99.90
14755;DHT22;7469;50.906;6.952;2023-11-21T02:02:52;9.60;99.90
14755;DHT22;7469;50.906;6.952;2023-11-21T02:05:20;9.70;99.90
14755;DHT22;7469;50.906;6.952;2023-11-21T02:07:49;9.60;99.90
14755;DHT22;7469;50.906;6.952;2023-11-21T02:10:19;9.60;99.90
14755;DHT22;7469;50.906;6.952;2023-11-21T02:12:49;9.60;99.90
14755;DHT22;7469;50.906;6.952;2023-11-21T02:15:18;9.60;99.90
14755;DHT22;7469;50.906;6.952;2023-11-21T02:17:48;9.50;99.90
14755;DHT22;7469;50.906;6.952;2023-11-21T02:20:20;9.50;99.90
14755;DHT22;7469;50.906;6.952;2023-11-21T02:22:53;9.50;99.90
14755;DHT22;7469;50.906;6.952;2023-11-21T02:25:25;9.50;99.90
14755;DHT22;7469;50.906;6.952;2023-11-21T02:27:54;9.50;99.90
14755;DHT22;7469;50.906;6.952;2023-11-21T02:30:23;9.50;99.90
14755;DHT22;7469;50.906;6.952;2023-11-21T02:32:52;9.50;99.90
14755;DHT22;7469;50.906;6.952;2023-11-21T02:35:20;9.50;99.90
14755;DHT22;7469;50.906;6.952;2023-11-21T02:37:49;9.40;99.90
14755;DHT22;7469;50.906;6.952;2023-11-21T02:40:18;9.40;99.90
14755;DHT22;7469;50.906;6.952;2023-11-21T02:42:47;9.30;99.90
14755;DHT22;7469;50.906;6.952;2023-11-21T02:45:19;9.30;99.90
14755;DHT22;7469;50.906;6.952;2023-11-21T02:47:47;9.30;99.90
14755;DHT22;7469;50.906;6.952;2023-11-21T02:50:16;9.40;99.90
14755;DHT22;7469;50.906;6.952;2023-11-21T02:52:46;9.40;99.90
14755;DHT22;7469;50.906;6.952;2023-11-21T02:55:14;9.40;99.90
14755;DHT22;7469;50.906;6.952;2023-11-21T02:57:44;9.40;99.90
14755;DHT22;7469;50.906;6.952;2023-11-21T03:00:12;9.40;99.90
14755;DHT22;7469;50.906;6.952;2023-11-21T03:02:42;9.40;99.90
14755;DHT22;7469;50.906;6.952;2023-11-21T03:05:10;9.40;99.90
14755;DHT22;7469;50.906;6.952;2023-11-21T03:07:39;9.40;99.90
14755;DHT22;7469;50.906;6.952;2023-11-21T03:10:08;9.40;99.90
14755;DHT22;7469;50.906;6.952;2023-11-21T03:12:37;9.40;99.90
14755;DHT22;7469;50.906;6.952;2023-11-21T03:15:08;9.40;99.90
14755;DHT22;7469;50.906;6.952;2023-11-21T03:17:36;9.40;99.90
14755;DHT22;7469;50.906;6.952;2023-11-21T03:20:06;9.40;99.90
14755;DHT22;7469;50.906;6.952;2023-11-21T03:22:37;9.40;99.90
14755;DHT22;7469;50.906;6.952;2023-11-21T03:25:06;9.50;99.90
14755;DHT22;7469;50.906;6.952;2023-11-21T03:27:37;9.50;99.90
14755;DHT22;7469;50.906;6.952;2023-11-21T03:30:09;9.40;99.90
14755;DHT22;7469;50.906;6.952;2023-11-21T03:32:37;9.40;99.90
14755;DHT22;7469;50.906;6.952;2023-11-21T03:35:06;9.40;99.90
14755;DHT22;7469;50.906;6.952;2023-11-21T03:37:34;9.40;99.90
14755;DHT22;7469;50.906;6.952;2023-11-21T03:40:02;9.40;99.90
14755;DHT22;7469;50.906;6.952;2023-11-21T03:42:31;9.40;99.90
14755;DHT22;7469;50.906;6.952;2023-11-21T03:44:59;9.40;99.90
14755;DHT22;7469;50.906;6.952;2023-11-21T03:47:29;9.40;99.90
14755;DHT22;7469;50.906;6.952;2023-11-21T03:49:56;9.40;99.90
14755;DHT22;7469;50.906;6.952;2023-11-21T03:52:24;9.40;99.90
14755;DHT22;7469;50.906;6.952;2023-11-21T03:54:53;9.40;99.90
14755;DHT22;7469;50.906;6.952;2023-11-21T03:57:22;9.40;99.90
14755;DHT22;7469;50.906;6.952;2023-11-21T03:59:50;9.40;99.90
14755;DHT22;7469;50.906;6.952;2023-11-21T04:02:18;9.40;99.90
14755;DHT22;7469;50.906;6.952;2023-11-21T04:04:47;9.40;99.90
14755;DHT22;7469;50.906;6.952;2023-11-21T04:07:15;9.40;99.90
14755;DHT22;7469;50.906;6.952;2023-11-21T04:09:44;9.40;99.90
14755;DHT22;7469;50.906;6.952;2023-11-21T04:12:12;9.40;99.90
14755;DHT22;7469;50.906;6.952;2023-11-21T04:14:40;9.40;99.90
14755;DHT22;7469;50.906;6.952;2023-11-21T04:17:08;9.40;99.90
14755;DHT22;7469;50.906;6.952;2023-11-21T04:19:36;9.50;99.90
14755;DHT22;7469;50.906;6.952;2023-11-21T04:22:05;9.40;99.90
14755;DHT22;7469;50.906;6.952;2023-11-21T04:24:33;9.50;99.90
14755;DHT22;7469;50.906;6.952;2023-11-21T04:27:01;9.40;99.90
14755;DHT22;7469;50.906;6.952;2023-11-21T04:29:29;9.40;99.90
14755;DHT22;7469;50.906;6.952;2023-11-21T04:31:57;9.40;99.90
14755;DHT22;7469;50.906;6.952;2023-11-21T04:34:25;9.40;99.90
14755;DHT22;7469;50.906;6.952;2023-11-21T04:36:53;9.40;99.90
14755;DHT22;7469;50.906;6.952;2023-11-21T04:39:23;9.40;99.90
14755;DHT22;7469;50.906;6.952;2023-11-21T04:41:51;9.40;99.90
14755;DHT22;7469;50.906;6.952;2023-11-21T04:44:18;9.40;99.90
14755;DHT22;7469;50.906;6.952;2023-11-21T04:46:46;9.40;99.90
14755;DHT22;7469;50.906;6.952;2023-11-21T04:49:14;9.30;99.90
14755;DHT22;7469;50.906;6.952;2023-11-21T04:51:42;9.30;99.90
14755;DHT22;7469;50.906;6.952;2023-11-21T04:54:10;9.40;99.90
14755;DHT22;7469;50.906;6.952;2023-11-21T04:56:39;9.30;99.90
14755;DHT22;7469;50.906;6.952;2023-11-21T04:59:08;9.40;99.90
14755;DHT22;7469;50.906;6.952;2023-11-21T05:01:36;9.40;99.90
14755;DHT22;7469;50.906;6.952;2023-11-21T05:04:05;9.40;99.90
14755;DHT22;7469;50.906;6.952;2023-11-21T05:06:35;9.40;99.90
14755;DHT22;7469;50.906;6.952;2023-11-21T05:09:03;9.40;99.90
14755;DHT22;7469;50.906;6.952;2023-11-21T05:11:31;9.30;99.90
14755;DHT22;7469;50.906;6.952;2023-11-21T05:14:00;9.30;99.90
14755;DHT22;7469;50.906;6.952;2023-11-21T05:16:30;9.20;99.90
14755;DHT22;7469;50.906;6.952;2023-11-21T05:18:58;9.30;99.90
14755;DHT22;7469;50.906;6.952;2023-11-21T05:21:27;9.20;99.90
14755;DHT22;7469;50.906;6.952;2023-11-21T05:23:56;9.30;99.90
14755;DHT22;7469;50.906;6.952;2023-11-21T05:26:24;9.30;99.90
14755;DHT22;7469;50.906;6.952;2023-11-21T05:28:52;9.30;99.90
14755;DHT22;7469;50.906;6.952;2023-11-21T05:31:21;9.30;99.90
14755;DHT22;7469;50.906;6.952;2023-11-21T05:33:49;9.20;99.90
14755;DHT22;7469;50.906;6.952;2023-11-21T05:36:17;9.20;99.90
14755;DHT22;7469;50.906;6.952;2023-11-21T05:38:45;9.20;99.90
14755;DHT22;7469;50.906;6.952;2023-11-21T05:41:13;9.20;99.90
14755;DHT22;7469;50.906;6.952;2023-11-21T05:43:41;9.20;99.90
14755;DHT22;7469;50.906;6.952;2023-11-21T05:46:09;9.20;99.90
14755;DHT22;7469;50.906;6.952;2023-11-21T05:48:39;9.20;99.90
14755;DHT22;7469;50.906;6.952;2023-11-21T05:51:07;9.20;99.90
14755;DHT22;7469;50.906;6.952;2023-11-21T05:53:35;9.20;99.90
14755;DHT22;7469;50.906;6.952;2023-11-21T05:56:03;9.20;99.90
14755;DHT22;7469;50.906;6.952;2023-11-21T05:58:31;9.20;99.90
14755;DHT22;7469;50.906;6.952;2023-11-21T06:01:00;9.20;99.90
14755;DHT22;7469;50.906;6.952;2023-11-21T06:03:28;9.20;99.90
14755;DHT22;7469;50.906;6.952;2023-11-21T06:05:57;9.20;99.90
14755;DHT22;7469;50.906;6.952;2023-11-21T06:08:25;9.20;99.90
14755;DHT22;7469;50.906;6.952;2023-11-21T06:10:53;9.20;99.90
14755;DHT22;7469;50.906;6.952;2023-11-21T06:13:22;9.20;99.90
14755;DHT22;7469;50.906;6.952;2023-11-21T06:15:51;9.20;99.90
14755;DHT22;7469;50.906;6.952;2023-11-21T06:18:19;9.20;99.90
14755;DHT22;7469;50.906;6.952;2023-11-21T06:20:47;9.20;99.90
14755;DHT22;7469;50.906;6.952;2023-11-21T06:23:16;9.20;99.90
14755;DHT22;7469;50.906;6.952;2023-11-21T06:25:44;9.20;99.90
14755;DHT22;7469;50.906;6.952;2023-11-21T06:28:12;9.20;99.90
14755;DHT22;7469;50.906;6.952;2023-11-21T06:30:44;9.20;99.90
14755;DHT22;7469;50.906;6.952;2023-11-21T06:33:12;9.20;99.90
14755;DHT22;7469;50.906;6.952;2023-11-21T06:35:40;9.20;99.90
14755;DHT22;7469;50.906;6.952;2023-11-21T06:38:08;9.20;99.90
14755;DHT22;7469;50.906;6.952;2023-11-21T06:40:38;9.30;99.90
14755;DHT22;7469;50.906;6.952;2023-11-21T06:43:07;9.20;99.90
14755;DHT22;7469;50.906;6.952;2023-11-21T06:45:34;9.20;99.90
14755;DHT22;7469;50.906;6.952;2023-11-21T06:48:05;9.20;99.90
14755;DHT22;7469;50.906;6.952;2023-11-21T06:50:33;9.20;99.90
14755;DHT22;7469;50.906;6.952;2023-11-21T06:53:01;9.20;99.90
14755;DHT22;7469;50.906;6.952;2023-11-21T06:55:33;9.20;99.90
14755;DHT22;7469;50.906;6.952;2023-11-21T06:58:03;9.20;99.90
14755;DHT22;7469;50.906;6.952;2023-11-21T07:00:31;9.20;99.90
14755;DHT22;7469;50.906;6.952;2023-11-21T07:03:00;9.20;99.90
14755;DHT22;7469;50.906;6.952;2023-11-21T07:05:28;9.20;99.90
14755;DHT22;7469;50.906;6.952;2023-11-21T07:07:56;9.20;99.90
14755;DHT22;7469;50.906;6.952;2023-11-21T07:10:27;9.20;99.90
14755;DHT22;7469;50.906;6.952;2023-11-21T07:12:55;9.20;99.90
14755;DHT22;7469;50.906;6.952;2023-11-21T07:15:25;9.20;99.90
14755;DHT22;7469;50.906;6.952;2023-11-21T07:17:53;9.20;99.90
14755;DHT22;7469;50.906;6.952;2023-11-21T07:20:21;9.20;99.90
14755;DHT22;7469;50.906;6.952;2023-11-21T07:22:49;9.20;99.90
14755;DHT22;7469;50.906;6.952;2023-11-21T07:25:17;9.20;99.90
14755;DHT22;7469;50.906;6.952;2023-11-21T07:27:45;9.20;99.90
14755;DHT22;7469;50.906;6.952;2023-11-21T07:30:13;9.20;99.90
14755;DHT22;7469;50.906;6.952;2023-11-21T07:32:43;9.20;99.90
14755;DHT22;7469;50.906;6.952;2023-11-21T07:35:11;9.20;99.90
14755;DHT22;7469;50.906;6.952;2023-11-21T07:37:39;9.30;99.90
14755;DHT22;7469;50.906;6.952;2023-11-21T07:40:08;9.20;99.90
14755;DHT22;7469;50.906;6.952;2023-11-21T07:42:38;9.30;99.90
14755;DHT22;7469;50.906;6.952;2023-11-21T07:45:07;9.30;99.90
14755;DHT22;7469;50.906;6.952;2023-11-21T07:47:35;9.30;99.90
14755;DHT22;7469;50.906;6.952;2023-11-21T07:50:05;9.30;99.90
14755;DHT22;7469;50.906;6.952;2023-11-21T07:52:35;9.40;99.90
14755;DHT22;7469;50.906;6.952;2023-11-21T07:55:03;9.30;99.90
14755;DHT22;7469;50.906;6.952;2023-11-21T07:57:31;9.30;99.90
14755;DHT22;7469;50.906;6.952;2023-11-21T07:59:59;9.30;99.90
14755;DHT22;7469;50.906;6.952;2023-11-21T08:02:27;9.20;99.90
14755;DHT22;7469;50.906;6.952;2023-11-21T08:04:55;9.30;99.90
14755;DHT22;7469;50.906;6.952;2023-11-21T08:07:25;9.20;99.90
14755;DHT22;7469;50.906;6.952;2023-11-21T08:09:54;9.20;99.90
14755;DHT22;7469;50.906;6.952;2023-11-21T08:12:23;9.20;99.90
14755;DHT22;7469;50.906;6.952;2023-11-21T08:14:51;9.30;99.90
14755;DHT22;7469;50.906;6.952;2023-11-21T08:17:19;9.30;99.90
14755;DHT22;7469;50.906;6.952;2023-11-21T08:19:47;9.40;99.90
14755;DHT22;7469;50.906;6.952;2023-11-21T08:22:16;9.40;99.90
14755;DHT22;7469;50.906;6.952;2023-11-21T08:24:46;9.50;99.90
14755;DHT22;7469;50.906;6.952;2023-11-21T08:27:14;9.60;99.90
14755;DHT22;7469;50.906;6.952;2023-11-21T08:29:43;9.60;99.90
14755;DHT22;7469;50.906;6.952;2023-11-21T08:32:11;9.60;99.90
14755;DHT22;7469;50.906;6.952;2023-11-21T08:34:39;9.70;99.90
14755;DHT22;7469;50.906;6.952;2023-11-21T08:37:10;9.70;99.90
14755;DHT22;7469;50.906;6.952;2023-11-21T08:39:39;9.70;99.90
14755;DHT22;7469;50.906;6.952;2023-11-21T08:42:10;9.70;99.90
14755;DHT22;7469;50.906;6.952;2023-11-21T08:44:38;9.70;99.90
14755;DHT22;7469;50.906;6.952;2023-11-21T08:47:06;9.70;99.90
14755;DHT22;7469;50.906;6.952;2023-11-21T08:49:35;9.70;99.90
14755;DHT22;7469;50.906;6.952;2023-11-21T08:52:03;9.70;99.90
14755;DHT22;7469;50.906;6.952;2023-11-21T08:54:33;9.70;99.90
14755;DHT22;7469;50.906;6.952;2023-11-21T08:57:01;9.70;99.90
14755;DHT22;7469;50.906;6.952;2023-11-21T08:59:31;9.70;99.90
14755;DHT22;7469;50.906;6.952;2023-11-21T09:01:59;9.80;99.90
14755;DHT22;7469;50.906;6.952;2023-11-21T09:04:27;9.80;99.90
14755;DHT22;7469;50.906;6.952;2023-11-21T09:06:55;9.80;99.90
14755;DHT22;7469;50.906;6.952;2023-11-21T09:09:23;9.80;99.90
14755;DHT22;7469;50.906;6.952;2023-11-21T09:11:52;9.80;99.90
14755;DHT22;7469;50.906;6.952;2023-11-21T09:14:20;9.80;99.90
14755;DHT22;7469;50.906;6.952;2023-11-21T09:16:49;9.80;99.90
14755;DHT22;7469;50.906;6.952;2023-11-21T09:19:17;9.80;99.90
14755;DHT22;7469;50.906;6.952;2023-11-21T09:21:46;9.90;99.90
14755;DHT22;7469;50.906;6.952;2023-11-21T09:24:14;9.90;99.90
14755;DHT22;7469;50.906;6.952;2023-11-21T09:26:41;9.90;99.90
14755;DHT22;7469;50.906;6.952;2023-11-21T09:29:09;10.00;99.90
14755;DHT22;7469;50.906;6.952;2023-11-21T09:31:37;10.00;99.90
14755;DHT22;7469;50.906;6.952;2023-11-21T09:34:07;10.10;99.90
14755;DHT22;7469;50.906;6.952;2023-11-21T09:36:35;10.10;99.90
14755;DHT22;7469;50.906;6.952;2023-11-21T09:39:06;10.10;99.90
14755;DHT22;7469;50.906;6.952;2023-11-21T09:41:43;10.10;99.90
14755;DHT22;7469;50.906;6.952;2023-11-21T09:44:14;10.10;99.90
14755;DHT22;7469;50.906;6.952;2023-11-21T09:46:47;10.10;99.90
14755;DHT22;7469;50.906;6.952;2023-11-21T09:49:18;10.10;99.90
14755;DHT22;7469;50.906;6.952;2023-11-21T09:51:54;10.20;99.90
14755;DHT22;7469;50.906;6.952;2023-11-21T09:54:23;10.20;99.90
14755;DHT22;7469;50.906;6.952;2023-11-21T09:56:51;10.20;99.90
14755;DHT22;7469;50.906;6.952;2023-11-21T09:59:19;10.20;99.90
14755;DHT22;7469;50.906;6.952;2023-11-21T10:01:47;10.20;99.90
14755;DHT22;7469;50.906;6.952;2023-11-21T10:04:18;10.20;99.90
14755;DHT22;7469;50.906;6.952;2023-11-21T10:06:47;10.20;99.90
14755;DHT22;7469;50.906;6.952;2023-11-21T10:09:17;10.20;99.90
14755;DHT22;7469;50.906;6.952;2023-11-21T10:11:47;10.20;99.90
14755;DHT22;7469;50.906;6.952;2023-11-21T10:14:19;10.20;99.90
14755;DHT22;7469;50.906;6.952;2023-11-21T10:16:52;10.20;99.90
14755;DHT22;7469;50.906;6.952;2023-11-21T10:19:23;10.20;99.90
14755;DHT22;7469;50.906;6.952;2023-11-21T10:21:51;10.20;99.90
14755;DHT22;7469;50.906;6.952;2023-11-21T10:24:21;10.20;99.90
14755;DHT22;7469;50.906;6.952;2023-11-21T10:26:49;10.30;99.90
14755;DHT22;7469;50.906;6.952;2023-11-21T10:29:20;10.30;99.90
14755;DHT22;7469;50.906;6.952;2023-11-21T10:31:49;10.30;99.90
14755;DHT22;7469;50.906;6.952;2023-11-21T10:34:19;10.40;99.90
14755;DHT22;7469;50.906;6.952;2023-11-21T10:36:49;10.30;99.90
14755;DHT22;7469;50.906;6.952;2023-11-21T10:39:18;10.30;99.90
14755;DHT22;7469;50.906;6.952;2023-11-21T10:41:47;10.30;99.90
14755;DHT22;7469;50.906;6.952;2023-11-21T10:44:16;10.30;99.90
14755;DHT22;7469;50.906;6.952;2023-11-21T10:46:49;10.30;99.90
14755;DHT22;7469;50.906;6.952;2023-11-21T10:49:17;10.40;99.90
14755;DHT22;7469;50.906;6.952;2023-11-21T10:51:46;10.40;99.90
14755;DHT22;7469;50.906;6.952;2023-11-21T10:54:19;10.40;99.90
14755;DHT22;7469;50.906;6.952;2023-11-21T10:56:49;10.40;99.90
14755;DHT22;7469;50.906;6.952;2023-11-21T10:59:18;10.50;99.90
14755;DHT22;7469;50.906;6.952;2023-11-21T11:01:49;10.50;99.90
14755;DHT22;7469;50.906;6.952;2023-11-21T11:04:19;10.50;99.90
14755;DHT22;7469;50.906;6.952;2023-11-21T11:06:51;10.50;99.90
14755;DHT22;7469;50.906;6.952;2023-11-21T11:09:23;10.50;99.90
14755;DHT22;7469;50.906;6.952;2023-11-21T11:11:52;10.50;99.90
14755;DHT22;7469;50.906;6.952;2023-11-21T11:14:20;10.50;99.90
14755;DHT22;7469;50.906;6.952;2023-11-21T11:16:54;10.60;99.90
14755;DHT22;7469;50.906;6.952;2023-11-21T11:19:23;10.60;99.90
14755;DHT22;7469;50.906;6.952;2023-11-21T11:22:00;10.60;99.90
14755;DHT22;7469;50.906;6.952;2023-11-21T11:24:48;10.60;99.90
14755;DHT22;7469;50.906;6.952;2023-11-21T11:27:23;10.60;99.90
14755;DHT22;7469;50.906;6.952;2023-11-21T11:30:03;10.60;99.90
14755;DHT22;7469;50.906;6.952;2023-11-21T11:32:55;10.60;99.90
14755;DHT22;7469;50.906;6.952;2023-11-21T11:35:30;10.50;99.90
14755;DHT22;7469;50.906;6.952;2023-11-21T11:38:01;10.50;99.90
14755;DHT22;7469;50.906;6.952;2023-11-21T11:40:40;10.50;99.90
14755;DHT22;7469;50.906;6.952;2023-11-21T11:43:09;10.50;99.90
14755;DHT22;7469;50.906;6.952;2023-11-21T11:45:37;10.50;99.90
14755;DHT22;7469;50.906;6.952;2023-11-21T11:48:10;10.60;99.90
14755;DHT22;7469;50.906;6.952;2023-11-21T11:53:25;10.60;99.90
14755;DHT22;7469;50.906;6.952;2023-11-21T11:56:20;10.60;99.90
14755;DHT22;7469;50.906;6.952;2023-11-21T11:58:50;10.60;99.90
14755;DHT22;7469;50.906;6.952;2023-11-21T12:01:19;10.60;99.90
14755;DHT22;7469;50.906;6.952;2023-11-21T12:06:52;10.70;99.90
14755;DHT22;7469;50.906;6.952;2023-11-21T12:09:22;10.70;99.90
14755;DHT22;7469;50.906;6.952;2023-11-21T12:11:52;10.80;99.90
14755;DHT22;7469;50.906;6.952;2023-11-21T12:14:21;10.90;99.90
14755;DHT22;7469;50.906;6.952;2023-11-21T12:16:49;10.80;99.90
14755;DHT22;7469;50.906;6.952;2023-11-21T12:19:18;10.90;99.90
14755;DHT22;7469;50.906;6.952;2023-11-21T12:21:48;10.90;99.90
14755;DHT22;7469;50.906;6.952;2023-11-21T12:24:17;10.90;99.90
14755;DHT22;7469;50.906;6.952;2023-11-21T12:26:44;10.90;99.90
14755;DHT22;7469;50.906;6.952;2023-11-21T12:29:14;10.90;99.90
14755;DHT22;7469;50.906;6.952;2023-11-21T12:31:43;10.90;99.90
14755;DHT22;7469;50.906;6.952;2023-11-21T12:34:12;10.90;99.90
14755;DHT22;7469;50.906;6.952;2023-11-21T12:36:41;11.00;99.90
14755;DHT22;7469;50.906;6.952;2023-11-21T12:39:09;11.00;99.90
14755;DHT22;7469;50.906;6.952;2023-11-21T12:41:37;11.10;99.90
14755;DHT22;7469;50.906;6.952;2023-11-21T12:44:10;11.10;99.90
14755;DHT22;7469;50.906;6.952;2023-11-21T12:46:42;11.10;99.90
14755;DHT22;7469;50.906;6.952;2023-11-21T12:49:12;11.10;99.90
14755;DHT22;7469;50.906;6.952;2023-11-21T12:51:45;11.10;99.90
14755;DHT22;7469;50.906;6.952;2023-11-21T12:54:13;11.10;99.90
14755;DHT22;7469;50.906;6.952;2023-11-21T12:56:45;11.10;99.90
14755;DHT22;7469;50.906;6.952;2023-11-21T12:59:14;11.10;99.90
14755;DHT22;7469;50.906;6.952;2023-11-21T13:01:44;11.00;99.90
14755;DHT22;7469;50.906;6.952;2023-11-21T13:04:12;11.00;99.90
14755;DHT22;7469;50.906;6.952;2023-11-21T13:06:41;11.00;99.90
14755;DHT22;7469;50.906;6.952;2023-11-21T13:09:09;10.90;99.90
14755;DHT22;7469;50.906;6.952;2023-11-21T13:11:37;10.90;99.90
14755;DHT22;7469;50.906;6.952;2023-11-21T13:14:07;10.90;99.90
14755;DHT22;7469;50.906;6.952;2023-11-21T13:16:37;10.90;99.90
14755;DHT22;7469;50.906;6.952;2023-11-21T13:19:14;10.80;99.90
14755;DHT22;7469;50.906;6.952;2023-11-21T13:21:42;10.80;99.90
14755;DHT22;7469;50.906;6.952;2023-11-21T13:24:10;10.80;99.90
14755;DHT22;7469;50.906;6.952;2023-11-21T13:26:38;10.80;99.90
14755;DHT22;7469;50.906;6.952;2023-11-21T13:29:07;10.80;99.90
14755;DHT22;7469;50.906;6.952;2023-11-21T13:31:35;10.80;99.90
14755;DHT22;7469;50.906;6.952;2023-11-21T13:34:05;10.80;99.90
14755;DHT22;7469;50.906;6.952;2023-11-21T13:36:37;10.90;99.90
14755;DHT22;7469;50.906;6.952;2023-11-21T13:39:05;10.90;99.90
14755;DHT22;7469;50.906;6.952;2023-11-21T13:41:35;10.90;99.90
14755;DHT22;7469;50.906;6.952;2023-11-21T13:44:06;10.90;99.90
14755;DHT22;7469;50.906;6.952;2023-11-21T13:46:43;11.00;99.90
14755;DHT22;7469;50.906;6.952;2023-11-21T13:49:12;10.90;99.90
14755;DHT22;7469;50.906;6.952;2023-11-21T13:51:43;11.00;99.90
14755;DHT22;7469;50.906;6.952;2023-11-21T13:54:14;10.90;99.90
14755;DHT22;7469;50.906;6.952;2023-11-21T13:56:42;10.90;99.90
14755;DHT22;7469;50.906;6.952;2023-11-21T13:59:12;10.90;99.90
14755;DHT22;7469;50.906;6.952;2023-11-21T14:01:47;10.90;99.90
14755;DHT22;7469;50.906;6.952;2023-11-21T14:04:23;10.90;99.90
14755;DHT22;7469;50.906;6.952;2023-11-21T14:07:21;11.00;99.90
14755;DHT22;7469;50.906;6.952;2023-11-21T14:09:57;10.90;99.90
14755;DHT22;7469;50.906;6.952;2023-11-21T14:12:25;10.90;99.90
14755;DHT22;7469;50.906;6.952;2023-11-21T14:14:53;10.90;99.90
14755;DHT22;7469;50.906;6.952;2023-11-21T14:17:21;10.90;99.90
14755;DHT22;7469;50.906;6.952;2023-11-21T14:19:51;10.90;99.90
14755;DHT22;7469;50.906;6.952;2023-11-21T14:22:20;10.90;99.90
14755;DHT22;7469;50.906;6.952;2023-11-21T14:24:48;10.90;99.90
14755;DHT22;7469;50.906;6.952;2023-11-21T14:27:19;11.00;99.90
14755;DHT22;7469;50.906;6.952;2023-11-21T14:29:47;11.00;99.90
14755;DHT22;7469;50.906;6.952;2023-11-21T14:32:15;11.00;99.90
14755;DHT22;7469;50.906;6.952;2023-11-21T14:34:44;11.00;99.90
14755;DHT22;7469;50.906;6.952;2023-11-21T14:37:14;11.00;99.90
14755;DHT22;7469;50.906;6.952;2023-11-21T14:39:43;11.00;99.90
14755;DHT22;7469;50.906;6.952;2023-11-21T14:42:14;11.00;99.90
14755;DHT22;7469;50.906;6.952;2023-11-21T14:44:43;10.90;99.90
14755;DHT22;7469;50.906;6.952;2023-11-21T14:47:11;10.90;99.90
14755;DHT22;7469;50.906;6.952;2023-11-21T14:49:43;10.90;99.90
14755;DHT22;7469;50.906;6.952;2023-11-21T14:52:23;10.90;99.90
14755;DHT22;7469;50.906;6.952;2023-11-21T14:55:03;10.80;99.90
14755;DHT22;7469;50.906;6.952;2023-11-21T14:57:47;10.90;99.90
14755;DHT22;7469;50.906;6.952;2023-11-21T15:00:18;10.80;99.90
14755;DHT22;7469;50.906;6.952;2023-11-21T15:03:04;10.90;99.90
14755;DHT22;7469;50.906;6.952;2023-11-21T15:05:33;10.90;99.90
14755;DHT22;7469;50.906;6.952;2023-11-21T15:08:02;10.90;99.90
14755;DHT22;7469;50.906;6.952;2023-11-21T15:10:46;10.90;99.90
14755;DHT22;7469;50.906;6.952;2023-11-21T15:13:20;10.90;99.90
14755;DHT22;7469;50.906;6.952;2023-11-21T15:15:48;10.80;99.90
14755;DHT22;7469;50.906;6.952;2023-11-21T15:18:19;10.80;99.90
14755;DHT22;7469;50.906;6.952;2023-11-21T15:20:47;10.80;99.90
14755;DHT22;7469;50.906;6.952;2023-11-21T15:23:15;10.80;99.90
14755;DHT22;7469;50.906;6.952;2023-11-21T15:25:47;10.80;99.90
14755;DHT22;7469;50.906;6.952;2023-11-21T15:28:15;10.80;99.90
14755;DHT22;7469;50.906;6.952;2023-11-21T15:30:44;10.80;99.90
14755;DHT22;7469;50.906;6.952;2023-11-21T15:33:15;10.80;99.90
14755;DHT22;7469;50.906;6.952;2023-11-21T15:35:43;10.70;99.90
14755;DHT22;7469;50.906;6.952;2023-11-21T15:38:11;10.70;99.90
14755;DHT22;7469;50.906;6.952;2023-11-21T15:40:40;10.70;99.90
14755;DHT22;7469;50.906;6.952;2023-11-21T15:43:11;10.70;99.90
14755;DHT22;7469;50.906;6.952;2023-11-21T15:45:39;10.70;99.90
14755;DHT22;7469;50.906;6.952;2023-11-21T15:48:07;10.70;99.90
14755;DHT22;7469;50.906;6.952;2023-11-21T15:50:36;10.70;99.90
14755;DHT22;7469;50.906;6.952;2023-11-21T15:53:04;10.70;99.90
14755;DHT22;7469;50.906;6.952;2023-11-21T15:55:32;10.70;99.90
14755;DHT22;7469;50.906;6.952;2023-11-21T15:58:02;10.70;99.90
14755;DHT22;7469;50.906;6.952;2023-11-21T16:00:32;10.70;99.90
14755;DHT22;7469;50.906;6.952;2023-11-21T16:03:00;10.60;99.90
14755;DHT22;7469;50.906;6.952;2023-11-21T16:05:28;10.60;99.90
14755;DHT22;7469;50.906;6.952;2023-11-21T16:07:56;10.60;99.90
14755;DHT22;7469;50.906;6.952;2023-11-21T16:10:24;10.60;99.90
14755;DHT22;7469;50.906;6.952;2023-11-21T16:12:52;10.60;99.90
14755;DHT22;7469;50.906;6.952;2023-11-21T16:15:20;10.50;99.90